createdAt,value
2018-06-30T00:00:40.267Z,5.5
2018-06-30T00:05:42.481Z,4.7
2018-06-30T00:10:44.733Z,4.9
2018-06-30T00:15:47.198Z,6.5
2018-06-30T00:20:49.340Z,5.1
2018-06-30T00:25:51.656Z,4.8
2018-06-30T00:30:54.142Z,8.2
2018-06-30T00:35:56.200Z,7.8
2018-06-30T00:40:58.664Z,5.7
2018-06-30T00:46:02.329Z,8
2018-06-30T00:51:03.187Z,7.5
2018-06-30T00:56:05.378Z,8.3
2018-06-30T01:01:07.833Z,11
2018-06-30T01:06:10.020Z,8.7
2018-06-30T01:11:12.352Z,4.6
2018-06-30T01:16:14.540Z,8.4
2018-06-30T01:21:16.917Z,7.4
2018-06-30T01:26:19.130Z,11.5
2018-06-30T01:31:21.540Z,6.9
2018-06-30T01:36:23.731Z,7.9
2018-06-30T01:41:26.134Z,9.4
2018-06-30T01:46:28.334Z,7.6
2018-06-30T01:51:30.776Z,7.8
2018-06-30T01:56:33.005Z,7.1
2018-06-30T02:01:35.262Z,8.9
2018-06-30T02:06:37.490Z,13.3
2018-06-30T02:11:41.065Z,10
2018-06-30T02:16:42.062Z,10.5
2018-06-30T02:21:44.622Z,7.8
2018-06-30T02:26:46.888Z,10.5
2018-06-30T02:31:49.032Z,7.7
2018-06-30T02:36:51.482Z,8.2
2018-06-30T02:41:53.629Z,7.6
2018-06-30T02:46:56.046Z,10.9
2018-06-30T02:51:58.232Z,9
2018-06-30T02:57:00.677Z,8.4
2018-06-30T03:02:02.837Z,10.4
2018-06-30T03:07:05.016Z,12.7
2018-06-30T03:12:07.449Z,12
2018-06-30T03:17:09.673Z,9.3
2018-06-30T03:22:12.032Z,9.8
2018-06-30T03:27:14.208Z,11.8
2018-06-30T03:32:16.568Z,11.6
2018-06-30T03:37:18.842Z,9.4
2018-06-30T03:42:21.248Z,8.9
2018-06-30T03:47:24.534Z,10.8
2018-06-30T03:52:25.753Z,10.7
2018-06-30T03:57:29.654Z,12.2
2018-06-30T04:02:30.315Z,12.5
2018-06-30T04:07:32.553Z,12.5
2018-06-30T04:12:35.069Z,15.7
2018-06-30T04:17:37.251Z,15.8
2018-06-30T04:22:39.528Z,13.1
2018-06-30T04:27:41.849Z,12.9
2018-06-30T04:32:44.093Z,12
2018-06-30T04:37:46.268Z,14.8
2018-06-30T04:42:48.721Z,17.1
2018-06-30T04:47:50.931Z,14.5
2018-06-30T04:52:53.268Z,11.5
2018-06-30T04:58:05.950Z,10.7
2018-06-30T05:02:57.946Z,13.4
2018-06-30T05:08:01.527Z,11.2
2018-06-30T05:13:02.514Z,10.1
2018-06-30T05:18:04.883Z,12
2018-06-30T05:23:06.952Z,12.2
2018-06-30T05:28:09.271Z,9.5
2018-06-30T05:33:11.769Z,11.2
2018-06-30T05:38:13.902Z,8.5
2018-06-30T05:43:16.199Z,12.1
2018-06-30T05:48:18.629Z,10.2
2018-06-30T05:53:20.870Z,14
2018-06-30T05:58:23.159Z,7.8
2018-06-30T06:03:26.591Z,11
2018-06-30T06:08:27.606Z,8.6
2018-06-30T06:13:34.373Z,13.4
2018-06-30T06:18:32.335Z,9.7
2018-06-30T06:23:34.575Z,13.3
2018-06-30T06:28:36.922Z,14.5
2018-06-30T06:33:39.255Z,11.8
2018-06-30T06:43:43.650Z,12.2
2018-06-30T06:48:46.020Z,11.2
2018-06-30T06:53:48.418Z,12
2018-06-30T06:58:50.630Z,10.6
2018-06-30T07:03:52.968Z,11.7
2018-06-30T07:08:55.257Z,11.3
2018-06-30T07:13:57.456Z,10
2018-06-30T07:19:00.846Z,11.8
2018-06-30T07:24:04.353Z,10.9
2018-06-30T07:29:04.362Z,8.9
2018-06-30T07:34:07.854Z,10.3
2018-06-30T07:39:08.994Z,10.7
2018-06-30T07:44:11.209Z,8.8
2018-06-30T07:49:13.631Z,11.3
2018-06-30T07:54:15.834Z,9
2018-06-30T07:59:18.172Z,9.3
2018-06-30T08:04:20.617Z,7.9
2018-06-30T08:09:22.902Z,11.6
2018-06-30T08:14:25.026Z,8.7
2018-06-30T08:19:27.555Z,7.1
2018-06-30T08:24:29.712Z,10.1
2018-06-30T08:29:31.856Z,8.3
2018-06-30T08:34:34.335Z,8.7
2018-06-30T08:39:36.660Z,7.9
2018-06-30T08:44:38.921Z,9.4
2018-06-30T08:49:42.314Z,9.1
2018-06-30T08:54:43.363Z,9.1
2018-06-30T08:59:45.656Z,8.8
2018-06-30T09:04:48.063Z,5.5
2018-06-30T09:09:50.389Z,7.9
2018-06-30T09:14:52.566Z,5.7
2018-06-30T09:19:54.912Z,6.3
2018-06-30T09:24:57.106Z,6.3
2018-06-30T09:29:59.440Z,5.9
2018-06-30T09:35:01.781Z,4.6
2018-06-30T09:40:04.512Z,5.9
2018-06-30T09:45:06.301Z,5.8
2018-06-30T09:50:08.733Z,7.6
2018-06-30T09:55:10.965Z,5.6
2018-06-30T10:00:13.116Z,2.5
2018-06-30T10:05:15.610Z,5.5
2018-06-30T10:10:18.784Z,6.1
2018-06-30T10:15:20.055Z,5.5
2018-06-30T10:20:22.540Z,5.6
2018-06-30T10:25:24.632Z,7.5
2018-06-30T10:30:27.032Z,3.6
2018-06-30T10:35:29.411Z,3.8
2018-06-30T10:40:31.588Z,3.7
2018-06-30T10:45:37.692Z,3.9
2018-06-30T10:50:39.905Z,6
2018-06-30T10:55:42.247Z,7.9
2018-06-30T11:00:44.509Z,6.6
2018-06-30T11:05:46.805Z,6.4
2018-06-30T11:10:53.340Z,3.7
2018-06-30T11:15:51.562Z,7.1
2018-06-30T11:20:53.620Z,5.9
2018-06-30T11:25:56.083Z,5.7
2018-06-30T11:30:58.260Z,3.4
2018-06-30T11:36:00.566Z,5.7
2018-06-30T11:41:04.236Z,5.5
2018-06-30T11:46:06.284Z,5.1
2018-06-30T11:51:07.497Z,6.1
2018-06-30T11:56:10.873Z,5.4
2018-06-30T12:01:12.313Z,5.2
2018-06-30T12:06:14.502Z,3.2
2018-06-30T12:11:16.598Z,4.2
2018-06-30T12:16:18.927Z,4.4
2018-06-30T12:21:21.262Z,3.5
2018-06-30T12:26:23.561Z,3.2
2018-06-30T12:31:25.825Z,4.4
2018-06-30T12:36:28.037Z,4.5
2018-06-30T12:41:30.470Z,4.5
2018-06-30T12:46:32.678Z,3.7
2018-06-30T12:51:34.972Z,3.8
2018-06-30T12:56:37.324Z,4.8
2018-06-30T13:01:40.744Z,5.9
2018-06-30T13:06:43.165Z,6.3
2018-06-30T13:11:44.100Z,3.8
2018-06-30T13:16:46.454Z,4.1
2018-06-30T13:21:48.718Z,4.8
2018-06-30T13:26:51.120Z,4.1
2018-06-30T13:31:53.395Z,3
2018-06-30T13:36:57.101Z,3.6
2018-06-30T13:41:58.051Z,3.2
2018-06-30T13:47:00.223Z,4.6
2018-06-30T13:52:02.635Z,3.3
2018-06-30T13:57:04.851Z,2.8
2018-06-30T14:07:09.565Z,4.5
2018-06-30T14:12:11.641Z,3.5
2018-06-30T14:17:13.963Z,2.3
2018-06-30T14:22:16.334Z,2.1
2018-06-30T14:27:18.666Z,3.6
2018-06-30T14:32:21.034Z,4.1
2018-06-30T14:37:23.213Z,4.2
2018-06-30T14:42:25.520Z,4
2018-06-30T14:47:27.720Z,4.2
2018-06-30T14:52:30.121Z,3.5
2018-06-30T14:57:32.384Z,4.6
2018-06-30T15:02:35.695Z,3.3
2018-06-30T15:07:38.729Z,4.2
2018-06-30T15:12:40.888Z,3.8
2018-06-30T15:17:41.499Z,2.9
2018-06-30T15:22:43.910Z,2.3
2018-06-30T15:27:46.128Z,3.4
2018-06-30T15:32:48.418Z,2
2018-06-30T15:37:50.843Z,3.8
2018-06-30T15:42:53.019Z,4.2
2018-06-30T15:47:55.350Z,4.7
2018-06-30T15:52:57.651Z,3.2
2018-06-30T15:57:59.876Z,3.4
2018-06-30T16:03:02.298Z,4.8
2018-06-30T16:08:04.576Z,5.7
2018-06-30T16:13:07.821Z,3.8
2018-06-30T16:18:09.243Z,6.4
2018-06-30T16:23:11.381Z,6.1
2018-06-30T16:28:13.692Z,5
2018-06-30T16:33:18.762Z,4.5
2018-06-30T16:38:18.327Z,4.7
2018-06-30T16:43:21.686Z,4.6
2018-06-30T16:48:22.799Z,4.4
2018-06-30T16:53:25.261Z,5.6
2018-06-30T16:58:27.418Z,3.9
2018-06-30T17:03:29.742Z,3.7
2018-06-30T17:08:33.265Z,3.4
2018-06-30T17:13:34.337Z,5.3
2018-06-30T17:18:36.635Z,5.6
2018-06-30T17:23:38.953Z,3.2
2018-06-30T17:28:41.209Z,2.9
2018-06-30T17:33:43.511Z,5.8
2018-06-30T17:38:45.698Z,6.8
2018-06-30T17:43:48.117Z,3.5
2018-06-30T17:48:50.477Z,3.9
2018-06-30T17:53:52.605Z,2.6
2018-06-30T17:58:54.985Z,3.4
2018-06-30T18:03:58.619Z,3.1
2018-06-30T18:08:59.523Z,2.8
2018-06-30T18:14:01.937Z,2.7
2018-06-30T18:19:04.193Z,3.8
2018-06-30T18:24:07.626Z,2.3
2018-06-30T18:29:08.772Z,2.8
2018-06-30T18:34:11.081Z,2.3
2018-06-30T18:39:13.331Z,2.6
2018-06-30T18:44:15.744Z,2.5
2018-06-30T18:49:19.605Z,2.8
2018-06-30T18:54:20.162Z,1.5
2018-06-30T18:59:22.651Z,1.7
2018-06-30T19:04:24.789Z,1.5
2018-06-30T19:09:27.157Z,1.1
2018-06-30T19:14:30.556Z,2.1
2018-06-30T19:19:31.733Z,0.3
2018-06-30T19:24:33.924Z,1
2018-06-30T19:29:36.264Z,1
2018-06-30T19:34:38.816Z,1.5
2018-06-30T19:39:40.855Z,1.8
2018-06-30T19:44:44.595Z,2.6
2018-06-30T19:49:45.727Z,1.2
2018-06-30T19:54:47.807Z,1.5
2018-06-30T19:59:51.731Z,0.8
2018-06-30T20:04:52.388Z,0.9
2018-06-30T20:09:54.591Z,1.2
2018-06-30T20:14:58.178Z,0.7
2018-06-30T20:19:59.192Z,3.2
2018-06-30T20:25:01.671Z,1.1
2018-06-30T20:30:03.805Z,0.6
2018-06-30T20:35:06.156Z,1.2
2018-06-30T20:40:08.291Z,0.9
2018-06-30T20:45:10.637Z,0.5
2018-06-30T20:50:12.976Z,0.2
2018-06-30T20:55:15.197Z,0.7
2018-06-30T21:00:17.763Z,1
2018-06-30T21:05:19.764Z,0.9
2018-06-30T21:10:22.161Z,0.7
2018-06-30T21:15:24.721Z,1.6
2018-06-30T21:20:28.325Z,1.1
2018-06-30T21:25:29.028Z,1.1
2018-06-30T21:30:31.478Z,0.9
2018-06-30T21:35:33.656Z,1
2018-06-30T21:40:37.134Z,0.4
2018-06-30T21:45:38.167Z,0.4
2018-06-30T21:50:40.611Z,2.4
2018-06-30T21:55:43.336Z,1
2018-06-30T22:00:45.254Z,0
2018-06-30T22:05:47.398Z,0.4
2018-06-30T22:10:49.749Z,0.6
2018-06-30T22:15:52.029Z,0.1
2018-06-30T22:20:54.364Z,1.1
2018-06-30T22:25:56.638Z,0.1
2018-06-30T22:30:58.868Z,0.9
2018-06-30T22:36:01.202Z,0.7
2018-06-30T22:41:03.780Z,0.9
2018-06-30T22:46:05.902Z,0.8
2018-06-30T22:51:08.067Z,1
2018-06-30T22:56:10.303Z,0.8
2018-06-30T23:01:12.672Z,0.9
2018-06-30T23:06:14.971Z,0.1
2018-06-30T23:11:17.188Z,1
2018-06-30T23:16:19.520Z,1.2
2018-06-30T23:21:21.870Z,2.9
2018-06-30T23:26:24.219Z,0.1
2018-06-30T23:31:27.503Z,0.4
2018-06-30T23:36:28.743Z,1
2018-06-30T23:41:30.956Z,1
2018-06-30T23:46:33.370Z,0.7
2018-06-30T23:51:35.580Z,0.9
2018-06-30T23:56:37.919Z,1
